This is the latest recevied weather packets stored in our database for station/object NI2O. If no packets are shown the sender has not sent any weather packets the latest 10 day(s).
| Time | Temp. | Humidity | Pressure | Rain* | Wind** | Luminosity | Snow |
|---|---|---|---|---|---|---|---|
| 1777417594 | 15.56° C | 70% | 1017.3 hPa | 0 mm | - | 15 W/m² | - |
| 1777412111 | 15° C | 58% | 1017.8 hPa | 0 mm | - | 42 W/m² | - |
| 1777407160 | 15.56° C | 54% | 1017.6 hPa | 0 mm | - | 129 W/m² | - |
| 1777401330 | 16.11° C | 49% | 1019.3 hPa | 0 mm | - | 128 W/m² | - |
| 1777400717 | 15.56° C | 51% | 1019.2 hPa | 0 mm | - | 154 W/m² | - |
| 1777396461 | 16.11° C | 46% | 1019.7 hPa | 0 mm | - | 208 W/m² | - |
| 1777387519 | 13.89° C | 48% | 1021.2 hPa | 0 mm | - | 152 W/m² | - |
| 1777386292 | 13.89° C | 50% | 1020.8 hPa | 0 mm | - | 129 W/m² | - |
| 1777385698 | 13.89° C | 48% | 1020.8 hPa | 0 mm | - | 124 W/m² | - |
| 1777385085 | 14.44° C | 50% | 1020.9 hPa | 0 mm | - | 132 W/m² | - |
| 1777383223 | 13.89° C | 51% | 1021.1 hPa | 0 mm | - | 204 W/m² | - |
| 1777382016 | 13.33° C | 51% | 1021.2 hPa | 0 mm | - | 186 W/m² | - |
| 1777376472 | 9.44° C | 70% | 1021.4 hPa | 0 mm | - | 37 W/m² | - |
| 1777374017 | 7.78° C | 80% | 1021 hPa | 0 mm | - | 26 W/m² | - |
| 1777372787 | 6.67° C | 84% | 1021 hPa | 0 mm | - | 17 W/m² | - |
| 1777372174 | 7.78° C | 82% | 1021 hPa | 0 mm | - | 12 W/m² | - |
| 1777366649 | 6.11° C | 82% | 1021.7 hPa | 0 mm | - | 0 W/m² | - |
| 1777366035 | 7.22° C | 79% | 1021.7 hPa | 0 mm | - | 0 W/m² | - |
| 1777358668 | 7.78° C | 76% | 1022.1 hPa | 0 mm | - | 0 W/m² | - |
| 1777356213 | 8.89° C | 73% | 1022.5 hPa | 0 mm | - | 0 W/m² | - |
| 1777351916 | 10° C | 68% | 1023.4 hPa | 0 mm | - | 0 W/m² | - |
| 1777350991 | 10.56° C | 68% | 1023.1 hPa | 0 mm | - | 0 W/m² | - |
| 1777345488 | 12.78° C | 62% | 1023.6 hPa | 0 mm | - | 0 W/m² | - |
| 1777337510 | 15.56° C | 57% | 1023.4 hPa | 0 mm | - | 0 W/m² | - |
| 1777336896 | 16.11° C | 58% | 1023.1 hPa | 0 mm | - | 0 W/m² | - |
* Rain latest hour (hover to see other rain measurements)
** Current wind speed in m/s (hover to see current wind gust speed)